createdAt,value
2019-05-09T00:02:27.106Z,99.90
2019-05-09T00:04:54.646Z,99.90
2019-05-09T00:07:23.295Z,99.90
2019-05-09T00:09:53.225Z,99.90
2019-05-09T00:12:20.320Z,99.90
2019-05-09T00:14:47.881Z,99.90
2019-05-09T00:17:15.447Z,99.90
2019-05-09T00:19:43.875Z,99.90
2019-05-09T00:22:13.651Z,99.90
2019-05-09T00:24:41.005Z,99.90
2019-05-09T00:27:08.965Z,99.90
2019-05-09T00:29:43.846Z,99.90
2019-05-09T00:32:29.410Z,99.90
2019-05-09T00:35:03.857Z,99.90
2019-05-09T00:37:49.661Z,99.90
2019-05-09T00:40:19.018Z,99.90
2019-05-09T00:42:47.555Z,99.90
2019-05-09T00:45:38.005Z,99.90
2019-05-09T00:48:05.578Z,99.90
2019-05-09T00:50:34.198Z,99.90
2019-05-09T00:53:03.103Z,99.90
2019-05-09T00:55:30.683Z,99.90
2019-05-09T00:57:58.375Z,99.90
2019-05-09T01:00:26.038Z,99.90
2019-05-09T01:02:54.228Z,99.90
2019-05-09T01:05:23.919Z,99.90
2019-05-09T01:07:53.627Z,99.90
2019-05-09T01:10:20.675Z,99.90
2019-05-09T01:12:48.475Z,99.90
2019-05-09T01:15:17.459Z,99.90
2019-05-09T01:17:44.907Z,99.90
2019-05-09T01:20:14.563Z,99.90
2019-05-09T01:22:43.580Z,99.90
2019-05-09T01:25:13.312Z,99.90
2019-05-09T01:27:40.396Z,99.90
2019-05-09T01:30:08.328Z,99.90
2019-05-09T01:32:57.971Z,99.90
2019-05-09T01:35:25.499Z,99.90
2019-05-09T01:37:53.886Z,99.90
2019-05-09T01:40:23.793Z,99.90
2019-05-09T01:42:53.949Z,99.90
2019-05-09T01:45:23.547Z,99.90
2019-05-09T01:47:50.826Z,99.90
2019-05-09T01:50:18.282Z,99.90
2019-05-09T01:52:46.226Z,99.90
2019-05-09T01:55:14.304Z,99.90
2019-05-09T01:57:45.606Z,99.90
2019-05-09T02:00:13.258Z,99.90
2019-05-09T02:02:40.836Z,99.90
2019-05-09T02:05:08.606Z,99.90
2019-05-09T02:07:35.933Z,99.90
2019-05-09T02:10:03.753Z,99.90
2019-05-09T02:12:31.078Z,99.90
2019-05-09T02:15:18.025Z,99.90
2019-05-09T02:18:01.095Z,99.90
2019-05-09T02:20:24.057Z,99.90
2019-05-09T02:22:54.247Z,99.90
2019-05-09T02:25:24.071Z,99.90
2019-05-09T02:27:51.012Z,99.90
2019-05-09T02:30:18.502Z,99.90
2019-05-09T02:32:46.366Z,99.90
2019-05-09T02:35:13.879Z,99.90
2019-05-09T02:37:41.452Z,99.90
2019-05-09T02:40:09.957Z,99.90
2019-05-09T02:42:39.559Z,99.90
2019-05-09T02:45:08.357Z,99.90
2019-05-09T02:47:38.549Z,99.90
2019-05-09T02:50:08.922Z,99.90
2019-05-09T02:52:35.224Z,99.90
2019-05-09T02:55:02.861Z,99.90
2019-05-09T02:57:30.508Z,99.90
2019-05-09T03:00:20.471Z,99.90
2019-05-09T03:03:13.323Z,99.90
2019-05-09T03:05:40.734Z,99.90
2019-05-09T03:08:08.963Z,99.90
2019-05-09T03:10:38.040Z,99.90
2019-05-09T03:13:08.670Z,99.90
2019-05-09T03:15:35.204Z,99.90
2019-05-09T03:18:02.756Z,99.90
2019-05-09T03:20:40.318Z,99.90
2019-05-09T03:23:09.067Z,99.90
2019-05-09T03:25:40.516Z,99.90
2019-05-09T03:28:18.438Z,99.90
2019-05-09T03:30:50.092Z,99.90
2019-05-09T03:33:20.056Z,99.90
2019-05-09T03:35:48.821Z,99.90
2019-05-09T03:38:17.973Z,99.90
2019-05-09T03:40:47.664Z,99.90
2019-05-09T03:43:15.331Z,99.90
2019-05-09T03:45:49.948Z,99.90
2019-05-09T03:48:23.366Z,99.90
2019-05-09T03:50:50.821Z,99.90
2019-05-09T03:53:18.533Z,99.90
2019-05-09T03:55:47.544Z,99.90
2019-05-09T03:58:18.365Z,99.90
2019-05-09T04:00:48.857Z,99.90
2019-05-09T04:03:19.816Z,99.90
2019-05-09T04:06:05.210Z,99.90
2019-05-09T04:08:33.021Z,99.90
2019-05-09T04:11:00.569Z,99.90
2019-05-09T04:13:33.713Z,99.90
2019-05-09T04:16:01.120Z,99.90
2019-05-09T04:18:28.629Z,99.90
2019-05-09T04:20:57.342Z,99.90
2019-05-09T04:23:24.973Z,99.90
2019-05-09T04:26:01.117Z,99.90
2019-05-09T04:28:28.617Z,99.90
2019-05-09T04:30:58.145Z,99.90
2019-05-09T04:33:27.803Z,99.90
2019-05-09T04:35:55.009Z,99.90
2019-05-09T04:38:22.605Z,99.90
2019-05-09T04:40:50.006Z,99.90
2019-05-09T04:43:26.709Z,99.90
2019-05-09T04:45:54.038Z,99.90
2019-05-09T04:48:31.335Z,99.90
2019-05-09T04:51:00.526Z,99.90
2019-05-09T04:53:28.576Z,99.90
2019-05-09T04:55:58.154Z,99.90
2019-05-09T04:58:27.408Z,99.90
2019-05-09T05:01:13.483Z,99.90
2019-05-09T05:03:42.453Z,99.90
2019-05-09T05:06:10.283Z,99.90
2019-05-09T05:08:37.815Z,99.90
2019-05-09T05:11:07.327Z,99.90
2019-05-09T05:13:34.490Z,99.90
2019-05-09T05:16:02.885Z,99.90
2019-05-09T05:18:30.960Z,99.90
2019-05-09T05:20:58.578Z,99.90
2019-05-09T05:23:32.694Z,99.90
2019-05-09T05:26:00.325Z,99.90
2019-05-09T05:28:28.314Z,99.90
2019-05-09T05:30:58.067Z,99.90
2019-05-09T05:33:34.595Z,99.90
2019-05-09T05:36:05.173Z,99.90
2019-05-09T05:38:32.577Z,99.90
2019-05-09T05:41:00.294Z,99.90
2019-05-09T05:43:40.901Z,99.90
2019-05-09T05:46:15.269Z,99.90
2019-05-09T05:48:43.302Z,99.90
2019-05-09T05:51:10.717Z,99.90
2019-05-09T05:53:38.146Z,99.90
2019-05-09T05:56:05.648Z,99.90
2019-05-09T05:58:33.202Z,99.90
2019-05-09T06:01:04.145Z,99.90
2019-05-09T06:03:30.243Z,99.90
2019-05-09T06:05:58.439Z,99.90
2019-05-09T06:08:27.566Z,99.90
2019-05-09T06:10:57.470Z,99.90
2019-05-09T06:13:24.591Z,99.90
2019-05-09T06:15:51.955Z,99.90
2019-05-09T06:18:19.526Z,99.90
2019-05-09T06:20:48.644Z,99.90
2019-05-09T06:23:17.601Z,99.90
2019-05-09T06:25:48.453Z,99.90
2019-05-09T06:28:15.302Z,99.90
2019-05-09T06:30:42.633Z,99.90
2019-05-09T06:33:10.163Z,99.90
2019-05-09T06:35:38.026Z,99.90
2019-05-09T06:38:07.677Z,99.90
2019-05-09T06:40:34.974Z,99.90
2019-05-09T06:43:18.279Z,99.90
2019-05-09T06:46:12.999Z,99.90
2019-05-09T06:48:40.497Z,99.90
2019-05-09T06:51:07.879Z,99.90
2019-05-09T06:53:35.322Z,99.90
2019-05-09T06:56:02.862Z,99.90
2019-05-09T06:58:30.377Z,99.90
2019-05-09T07:01:04.902Z,99.90
2019-05-09T07:03:32.779Z,99.90
2019-05-09T07:06:08.462Z,99.90
2019-05-09T07:08:49.193Z,99.90
2019-05-09T07:11:19.033Z,99.90
2019-05-09T07:13:47.770Z,99.90
2019-05-09T07:16:15.265Z,99.90
2019-05-09T07:18:43.073Z,99.90
2019-05-09T07:21:10.620Z,99.90
2019-05-09T07:23:38.043Z,99.90
2019-05-09T07:26:09.595Z,99.60
2019-05-09T07:28:37.729Z,99.20
2019-05-09T07:31:23.415Z,99.10
2019-05-09T07:33:58.833Z,98.90
2019-05-09T07:36:27.812Z,98.50
2019-05-09T07:38:55.350Z,98.20
2019-05-09T07:41:23.020Z,97.70
2019-05-09T07:43:53.765Z,97.30
2019-05-09T07:46:28.096Z,97.10
2019-05-09T07:48:57.798Z,96.50
2019-05-09T07:51:27.304Z,96.00
2019-05-09T07:53:54.342Z,95.60
2019-05-09T07:56:22.178Z,95.30
2019-05-09T07:58:49.674Z,95.00
2019-05-09T08:01:19.054Z,95.10
2019-05-09T08:03:49.027Z,94.80
2019-05-09T08:06:18.338Z,94.50
2019-05-09T08:08:48.752Z,94.00
2019-05-09T08:11:17.978Z,93.40
2019-05-09T08:13:48.590Z,93.00
2019-05-09T08:16:18.432Z,92.80
2019-05-09T08:18:48.165Z,92.90
2019-05-09T08:21:17.966Z,92.40
2019-05-09T08:23:48.504Z,91.60
2019-05-09T08:26:18.668Z,91.10
2019-05-09T08:28:48.132Z,90.90
2019-05-09T08:31:17.692Z,91.00
2019-05-09T08:33:48.605Z,90.60
2019-05-09T08:36:18.016Z,90.30
2019-05-09T08:38:47.767Z,89.80
2019-05-09T08:41:18.390Z,89.20
2019-05-09T08:43:48.169Z,88.60
2019-05-09T08:46:15.218Z,87.90
2019-05-09T08:48:43.242Z,87.20
2019-05-09T08:51:38.443Z,87.20
2019-05-09T08:54:03.315Z,86.70
2019-05-09T08:56:30.805Z,86.20
2019-05-09T08:59:01.931Z,85.30
2019-05-09T09:01:46.061Z,84.20
2019-05-09T09:03:57.635Z,83.00
2019-05-09T09:06:27.681Z,82.60
2019-05-09T09:08:57.644Z,81.90
2019-05-09T09:11:25.136Z,80.80
2019-05-09T09:13:52.490Z,80.70
2019-05-09T09:16:22.542Z,80.40
2019-05-09T09:18:49.345Z,80.00
2019-05-09T09:21:18.286Z,79.10
2019-05-09T09:23:50.467Z,78.50
2019-05-09T09:26:18.230Z,76.60
2019-05-09T09:28:48.565Z,76.70
2019-05-09T09:31:17.920Z,76.50
2019-05-09T09:33:47.851Z,76.20
2019-05-09T09:36:17.641Z,75.70
2019-05-09T09:38:48.021Z,75.30
2019-05-09T09:41:14.534Z,74.10
2019-05-09T09:43:42.039Z,73.50
2019-05-09T09:46:14.472Z,73.50
2019-05-09T09:48:39.191Z,73.70
2019-05-09T09:51:08.039Z,73.20
2019-05-09T09:53:38.242Z,73.20
2019-05-09T09:56:05.590Z,73.30
2019-05-09T09:58:32.946Z,73.50
2019-05-09T10:01:24.348Z,73.50
2019-05-09T10:04:15.654Z,72.70
2019-05-09T10:06:31.475Z,71.70
2019-05-09T10:08:58.903Z,70.30
2019-05-09T10:11:28.577Z,69.60
2019-05-09T10:13:55.627Z,69.10
2019-05-09T10:16:48.410Z,68.80
2019-05-09T10:19:21.691Z,68.40
2019-05-09T10:21:52.372Z,68.10
2019-05-09T10:24:19.975Z,68.30
2019-05-09T10:27:08.775Z,67.80
2019-05-09T10:29:38.523Z,66.50
2019-05-09T10:32:09.553Z,65.70
2019-05-09T10:34:37.819Z,65.10
2019-05-09T10:37:07.729Z,64.10
2019-05-09T10:39:37.938Z,62.70
2019-05-09T10:42:11.735Z,62.70
2019-05-09T10:44:46.198Z,62.50
2019-05-09T10:47:22.697Z,62.20
2019-05-09T10:49:50.456Z,61.40
2019-05-09T10:52:18.331Z,61.40
2019-05-09T10:54:47.411Z,61.40
2019-05-09T10:57:14.892Z,60.40
2019-05-09T10:59:42.508Z,60.20
2019-05-09T11:02:10.007Z,59.70
2019-05-09T11:04:39.814Z,59.50
2019-05-09T11:07:08.070Z,59.40
2019-05-09T11:09:35.744Z,59.20
2019-05-09T11:12:03.327Z,59.10
2019-05-09T11:14:36.770Z,59.00
2019-05-09T11:17:11.013Z,58.40
2019-05-09T11:19:29.686Z,58.10
2019-05-09T11:21:58.610Z,57.40
2019-05-09T11:24:41.787Z,56.80
2019-05-09T11:27:15.329Z,56.70
2019-05-09T11:29:46.260Z,56.60
2019-05-09T11:32:12.405Z,56.70
2019-05-09T11:34:39.967Z,56.50
2019-05-09T11:37:08.446Z,56.20
2019-05-09T11:39:41.779Z,55.80
2019-05-09T11:42:05.506Z,55.50
2019-05-09T11:44:33.892Z,55.10
2019-05-09T11:47:01.403Z,54.50
2019-05-09T11:49:29.612Z,53.80
2019-05-09T11:51:57.768Z,53.40
2019-05-09T11:54:28.020Z,53.20
2019-05-09T11:56:57.807Z,53.70
2019-05-09T11:59:25.285Z,53.70
2019-05-09T12:01:52.880Z,53.50
2019-05-09T12:04:20.494Z,53.10
2019-05-09T12:06:49.368Z,53.40
2019-05-09T12:09:17.116Z,53.30
2019-05-09T12:11:44.934Z,53.10
2019-05-09T12:14:13.615Z,53.30
2019-05-09T12:16:41.752Z,53.20
2019-05-09T12:19:09.060Z,53.40
2019-05-09T12:21:46.639Z,53.20
2019-05-09T12:24:06.022Z,53.00
2019-05-09T12:26:34.665Z,53.10
2019-05-09T12:29:02.223Z,53.00
2019-05-09T12:31:29.722Z,52.90
2019-05-09T12:33:59.268Z,52.60
2019-05-09T12:36:28.670Z,52.50
2019-05-09T12:38:59.073Z,52.50
2019-05-09T12:41:30.986Z,52.20
2019-05-09T12:43:57.455Z,52.00
2019-05-09T12:46:25.141Z,52.00
2019-05-09T12:48:52.892Z,51.30
2019-05-09T12:51:20.582Z,51.40
2019-05-09T12:53:48.741Z,51.30
2019-05-09T12:56:18.698Z,51.30
2019-05-09T12:58:47.758Z,51.30
2019-05-09T13:01:15.197Z,51.50
2019-05-09T13:03:48.246Z,51.40
2019-05-09T13:06:19.563Z,51.30
2019-05-09T13:08:44.672Z,51.30
2019-05-09T13:11:12.341Z,51.50
2019-05-09T13:13:41.137Z,51.30
2019-05-09T13:16:39.108Z,51.30
2019-05-09T13:19:14.416Z,51.40
2019-05-09T13:21:43.138Z,51.00
2019-05-09T13:24:10.750Z,51.10
2019-05-09T13:26:38.836Z,51.10
2019-05-09T13:29:08.094Z,50.90
2019-05-09T13:31:39.199Z,51.10
2019-05-09T13:34:07.708Z,51.30
2019-05-09T13:36:34.604Z,51.30
2019-05-09T13:39:04.987Z,51.20
2019-05-09T13:41:32.602Z,51.00
2019-05-09T13:44:05.146Z,51.20
2019-05-09T13:46:29.458Z,51.00
2019-05-09T13:49:14.873Z,51.80
2019-05-09T13:51:47.082Z,51.30
2019-05-09T13:54:07.698Z,51.40
2019-05-09T13:56:35.297Z,51.50
2019-05-09T13:59:03.500Z,51.60
2019-05-09T14:01:31.172Z,51.90
2019-05-09T14:03:59.056Z,52.00
2019-05-09T14:06:27.904Z,51.70
2019-05-09T14:08:59.360Z,51.60
2019-05-09T14:11:25.145Z,51.60
2019-05-09T14:13:52.547Z,51.80
2019-05-09T14:16:22.263Z,52.10
2019-05-09T14:18:49.808Z,52.30
2019-05-09T14:21:21.434Z,52.40
2019-05-09T14:24:00.165Z,52.80
2019-05-09T14:26:17.954Z,53.00
2019-05-09T14:28:45.626Z,53.10
2019-05-09T14:31:13.137Z,53.10
2019-05-09T14:33:40.620Z,53.30
2019-05-09T14:36:08.358Z,53.40
2019-05-09T14:38:36.160Z,53.40
2019-05-09T14:41:03.783Z,53.60
2019-05-09T14:43:31.358Z,53.50
2019-05-09T14:45:58.753Z,53.40
2019-05-09T14:48:28.542Z,53.30
2019-05-09T14:50:58.183Z,53.30
2019-05-09T14:53:25.010Z,53.50
2019-05-09T14:55:52.535Z,53.50
2019-05-09T14:58:19.946Z,53.50
2019-05-09T15:00:47.960Z,53.50
2019-05-09T15:03:15.466Z,53.50
2019-05-09T15:05:47.887Z,53.50
2019-05-09T15:08:15.018Z,53.60
2019-05-09T15:10:42.769Z,53.60
2019-05-09T15:13:10.287Z,54.10
2019-05-09T15:15:38.187Z,53.40
2019-05-09T15:18:08.051Z,53.30
2019-05-09T15:20:35.281Z,53.20
2019-05-09T15:23:02.909Z,53.10
2019-05-09T15:25:30.677Z,53.00
2019-05-09T15:27:58.226Z,52.90
2019-05-09T15:30:28.420Z,52.90
2019-05-09T15:32:55.032Z,53.00
2019-05-09T15:35:22.683Z,53.20
2019-05-09T15:37:50.208Z,53.10
2019-05-09T15:40:18.429Z,53.00
2019-05-09T15:42:47.867Z,52.90
2019-05-09T15:45:18.111Z,52.90
2019-05-09T15:47:45.138Z,52.70
2019-05-09T15:50:22.513Z,52.90
2019-05-09T15:52:42.786Z,52.80
2019-05-09T15:55:10.449Z,52.70
2019-05-09T15:57:38.050Z,52.70
2019-05-09T16:00:09.297Z,52.50
2019-05-09T16:02:39.147Z,52.50
2019-05-09T16:05:10.537Z,52.60
2019-05-09T16:07:37.489Z,52.30
2019-05-09T16:10:05.593Z,51.90
2019-05-09T16:12:33.451Z,51.70
2019-05-09T16:15:02.161Z,51.50
2019-05-09T16:17:29.927Z,51.40
2019-05-09T16:19:58.243Z,50.30
2019-05-09T16:22:28.259Z,50.30
2019-05-09T16:24:55.131Z,50.40
2019-05-09T16:27:22.803Z,50.60
2019-05-09T16:29:50.246Z,51.00
2019-05-09T16:32:17.966Z,51.30
2019-05-09T16:34:45.357Z,51.80
2019-05-09T16:37:13.096Z,52.20
2019-05-09T16:39:40.669Z,52.60
2019-05-09T16:42:11.611Z,52.90
2019-05-09T16:44:41.764Z,53.30
2019-05-09T16:47:08.503Z,53.60
2019-05-09T16:49:38.488Z,54.10
2019-05-09T16:52:07.359Z,54.40
2019-05-09T16:54:38.801Z,54.70
2019-05-09T16:57:08.254Z,55.00
2019-05-09T16:59:38.624Z,55.10
2019-05-09T17:02:17.827Z,54.90
2019-05-09T17:04:35.234Z,54.00
2019-05-09T17:07:03.867Z,53.70
2019-05-09T17:09:32.681Z,51.90
2019-05-09T17:12:00.305Z,50.60
2019-05-09T17:14:28.386Z,49.00
2019-05-09T17:16:59.625Z,48.10
2019-05-09T17:19:28.093Z,45.80
2019-05-09T17:22:11.555Z,42.80
2019-05-09T17:24:40.423Z,41.10
2019-05-09T17:27:08.715Z,40.50
2019-05-09T17:29:38.330Z,41.00
2019-05-09T17:32:07.746Z,40.50
2019-05-09T17:34:37.924Z,40.10
2019-05-09T17:37:05.384Z,38.70
2019-05-09T17:39:33.213Z,39.00
2019-05-09T17:42:01.008Z,39.80
2019-05-09T17:44:28.805Z,40.40
2019-05-09T17:46:59.673Z,39.70
2019-05-09T17:49:28.083Z,37.90
2019-05-09T17:51:58.219Z,35.70
2019-05-09T17:54:25.211Z,35.30
2019-05-09T17:56:52.901Z,35.00
2019-05-09T17:59:20.592Z,35.00
2019-05-09T18:01:48.361Z,34.20
2019-05-09T18:04:17.987Z,34.60
2019-05-09T18:06:45.802Z,35.60
2019-05-09T18:09:13.618Z,37.00
2019-05-09T18:11:41.772Z,37.70
2019-05-09T18:14:10.436Z,38.40
2019-05-09T18:16:39.098Z,39.00
2019-05-09T18:19:08.293Z,39.50
2019-05-09T18:21:49.554Z,40.20
2019-05-09T18:24:10.972Z,40.90
2019-05-09T18:26:41.372Z,41.30
2019-05-09T18:29:09.040Z,41.80
2019-05-09T18:32:08.120Z,42.40
2019-05-09T18:34:37.869Z,42.90
2019-05-09T18:37:07.805Z,43.50
2019-05-09T18:39:37.334Z,44.00
2019-05-09T18:42:04.673Z,44.60
2019-05-09T18:44:32.243Z,45.30
2019-05-09T18:46:59.782Z,45.80
2019-05-09T18:49:27.347Z,46.30
2019-05-09T18:52:03.317Z,46.80
2019-05-09T18:54:24.535Z,47.30
2019-05-09T18:56:52.132Z,47.70
2019-05-09T18:59:19.806Z,48.30
2019-05-09T19:01:47.488Z,48.70
2019-05-09T19:04:15.516Z,49.10
2019-05-09T19:06:43.147Z,49.60
2019-05-09T19:09:11.030Z,50.10
2019-05-09T19:11:38.968Z,50.40
2019-05-09T19:14:08.079Z,50.90
2019-05-09T19:16:46.539Z,51.30
2019-05-09T19:19:20.515Z,51.70
2019-05-09T19:21:54.073Z,52.00
2019-05-09T19:24:21.803Z,52.50
2019-05-09T19:26:49.442Z,52.90
2019-05-09T19:29:17.547Z,53.20
2019-05-09T19:31:45.272Z,53.50
2019-05-09T19:34:12.727Z,53.90
2019-05-09T19:36:40.187Z,54.30
2019-05-09T19:39:11.371Z,54.60
2019-05-09T19:41:39.495Z,54.80
2019-05-09T19:44:07.721Z,55.10
2019-05-09T19:46:36.342Z,55.60
2019-05-09T19:49:03.961Z,55.90
2019-05-09T19:51:32.677Z,56.20
2019-05-09T19:54:00.423Z,56.40
2019-05-09T19:56:27.923Z,56.80
2019-05-09T20:01:57.904Z,57.70
2019-05-09T20:04:26.280Z,57.90
2019-05-09T20:06:55.617Z,58.30
2019-05-09T20:09:28.870Z,58.50
2019-05-09T20:12:02.657Z,58.60
2019-05-09T20:14:39.613Z,58.70
2019-05-09T20:17:07.408Z,58.90
2019-05-09T20:19:35.501Z,59.10
2019-05-09T20:22:03.851Z,59.20
2019-05-09T20:24:31.467Z,59.30
2019-05-09T20:27:00.350Z,59.70
2019-05-09T20:29:30.202Z,59.80
2019-05-09T20:31:57.284Z,60.10
2019-05-09T20:34:24.848Z,60.50
2019-05-09T20:36:52.452Z,60.70
2019-05-09T20:39:20.194Z,61.10
2019-05-09T20:41:47.805Z,61.30
2019-05-09T20:44:15.270Z,61.60
2019-05-09T20:46:43.239Z,62.10
2019-05-09T20:49:10.801Z,62.60
2019-05-09T20:51:38.443Z,63.20
2019-05-09T20:54:20.001Z,63.90
2019-05-09T20:56:35.358Z,64.70
2019-05-09T20:59:02.915Z,65.50
2019-05-09T21:01:30.598Z,67.40
2019-05-09T21:04:00.567Z,67.90
2019-05-09T21:06:27.673Z,68.90
2019-05-09T21:08:55.383Z,69.70
2019-05-09T21:11:22.901Z,70.70
2019-05-09T21:13:50.772Z,71.60
2019-05-09T21:16:18.515Z,72.10
2019-05-09T21:18:46.205Z,72.50
2019-05-09T21:21:13.830Z,72.90
2019-05-09T21:23:43.627Z,73.20
2019-05-09T21:26:11.289Z,73.50
2019-05-09T21:28:38.985Z,73.40
2019-05-09T21:31:06.661Z,73.90
2019-05-09T21:33:34.232Z,74.50
2019-05-09T21:36:01.716Z,74.80
2019-05-09T21:38:29.138Z,75.20
2019-05-09T21:40:56.538Z,75.50
2019-05-09T21:43:24.126Z,76.00
2019-05-09T21:45:51.601Z,76.40
2019-05-09T21:48:19.178Z,76.70
2019-05-09T21:50:46.827Z,77.10
2019-05-09T21:53:15.384Z,77.70
2019-05-09T21:55:44.110Z,78.30
2019-05-09T21:58:11.610Z,78.90
2019-05-09T22:00:42.447Z,79.40
2019-05-09T22:03:11.787Z,80.20
2019-05-09T22:05:39.281Z,80.50
2019-05-09T22:08:06.851Z,81.00
2019-05-09T22:10:35.677Z,81.80
2019-05-09T22:13:03.353Z,82.40
2019-05-09T22:15:30.890Z,82.90
2019-05-09T22:17:58.319Z,83.40
2019-05-09T22:20:25.891Z,83.90
2019-05-09T22:22:53.338Z,84.50
2019-05-09T22:25:20.774Z,85.00
2019-05-09T22:27:49.520Z,85.50
2019-05-09T22:30:18.880Z,85.90
2019-05-09T22:32:46.313Z,86.40
2019-05-09T22:35:14.861Z,86.90
2019-05-09T22:37:42.658Z,87.30
2019-05-09T22:40:10.545Z,87.70
2019-05-09T22:42:38.101Z,88.20
2019-05-09T22:45:06.828Z,88.60
2019-05-09T22:47:34.246Z,89.10
2019-05-09T22:50:01.770Z,89.60
2019-05-09T22:52:29.267Z,90.00
2019-05-09T22:54:56.940Z,90.10
2019-05-09T22:57:24.450Z,90.40
2019-05-09T22:59:51.922Z,90.50
2019-05-09T23:02:19.504Z,90.90
2019-05-09T23:04:47.093Z,91.00
2019-05-09T23:07:14.674Z,91.30
2019-05-09T23:09:43.547Z,91.50
2019-05-09T23:12:11.105Z,91.70
2019-05-09T23:14:38.514Z,91.80
2019-05-09T23:17:06.706Z,92.00
2019-05-09T23:19:34.275Z,92.10
2019-05-09T23:22:01.762Z,92.30
2019-05-09T23:24:31.255Z,92.50
2019-05-09T23:26:59.717Z,92.60
2019-05-09T23:29:27.290Z,92.70
2019-05-09T23:32:03.905Z,92.80
2019-05-09T23:34:32.522Z,92.90
2019-05-09T23:37:19.427Z,92.90
2019-05-09T23:39:47.478Z,93.10
2019-05-09T23:42:15.010Z,93.20
2019-05-09T23:45:01.998Z,93.30
2019-05-09T23:47:29.583Z,93.40
2019-05-09T23:49:56.975Z,93.60
2019-05-09T23:52:24.486Z,93.90
2019-05-09T23:55:10.552Z,93.80
2019-05-09T23:57:56.438Z,94.00
